Inglis, Florida
Current Conditions -  °F | °C
As of 2:55 PM on Thursday 30 Oct 2014 (Local Time) from KCGC Reporting Station
Clear Clear  
Wind Chill: 81°   Ceiling: Unl
Heat Index: 81°   Visibility: 10mi
Dew Point: 61°   Wind: 0mph
Humidity: 51%   Direction: NA
Pressure: 29.91"   Gusts: NA
Location:  29.03°N, 82.67°W
Report Text: KCGC 301855Z AUTO 00000KT 10SM CLR 27/16 A2991 RMK AO2 LTG DSNT S
Loading
Personal Weather Stations






























Interactive Weather Map
Tropical Storm Tracking
New forecast layout! Learn more

10-Day Weather Forecast

Advertisements
Track Severe Weather on mobile